Airfield :
LOGIN :

Register | Disclaimer

   EN    FR    IT 

 










Legend :    VFR   Marginal VFR   IFR   Intensive IFR   Very Intensive IFR
Visi :
Ceiling :
>= 8 km
>= 3000ft
5 to 8 km
1000 to 3000 ft
1500m to 5 km
500 to 1000 ft
800 to 1500m
200 to 500 ft
< 800m
< 200 ft
Symbols :   Thunderstorms  Fog  Heavy snow  Heavy precipitations  Wind > 20 kt
SIGMETs :     Misc.  Thunderstorms  Icing  Turbulence  Mountain Waves  Volcanic Ashes






- Airport Elevation : 157 ft
- IATA code : LIL


LFQQ - Lille Lesquin

CURRENT METAR :
  • 012230Z AUTO 04005KT 5000 BR NSC 06/03 Q1029 NOSIG

EXPIRED METARs :
  • 012200Z AUTO 02005KT 6000 NSC 06/03 Q1029 NOSIG
  • 012130Z AUTO 02007KT 6000 NSC 06/03 Q1029 NOSIG
  • 012100Z AUTO 02005KT 6000 NSC 07/03 Q1029 NOSIG
  • 012030Z AUTO 03004KT 7000 NSC 07/03 Q1029 NOSIG
  • 012000Z AUTO 03004KT 6000 NSC 07/03 Q1029 NOSIG

TAF TAF LFQQ
Valid from the 01 at 18:00 until the 03 at 00:00 UTC


011700Z 0118/0224 06007KT CAVOK
PROB30 0204/0209 4000 BR
BECMG 0221/0224 3000 BR
ATIS : +33 3 20 16 19 54



MET'MAP, your aeronautical weather chart ! - Copyright ORBIFLY December 2007 - Disclaimer

ORBIFLY MET'MAP TEAM :

Programming & Development : Alexandra Zaïnal
Concept & original design : Baudouin d'Aumeries
Assistance for programming : Marc-Olivier Méhu
Technical & hardware support : Manuel Goepfert

Contact : metmap@orbifly.com




SOURCES & CREDITS :

   NOAA